createdAt,value
2018-05-02T00:01:48.330Z,56.10
2018-05-02T00:04:14.749Z,57.40
2018-05-02T00:06:41.170Z,58.00
2018-05-02T00:09:07.591Z,58.10
2018-05-02T00:11:34.105Z,57.50
2018-05-02T00:14:00.606Z,56.80
2018-05-02T00:16:27.016Z,56.90
2018-05-02T00:18:53.392Z,57.00
2018-05-02T00:21:19.807Z,57.00
2018-05-02T00:23:47.740Z,57.40
2018-05-02T00:26:14.169Z,57.40
2018-05-02T00:28:40.657Z,57.00
2018-05-02T00:31:06.997Z,56.90
2018-05-02T00:33:33.428Z,56.70
2018-05-02T00:35:59.897Z,56.70
2018-05-02T00:38:26.287Z,56.50
2018-05-02T00:40:52.729Z,56.80
2018-05-02T00:43:19.182Z,56.50
2018-05-02T00:45:45.609Z,56.60
2018-05-02T00:48:12.019Z,56.10
2018-05-02T00:50:38.424Z,56.10
2018-05-02T00:53:04.869Z,56.30
2018-05-02T00:55:31.240Z,56.20
2018-05-02T00:57:57.661Z,55.90
2018-05-02T01:00:24.133Z,56.30
2018-05-02T01:02:50.621Z,56.30
2018-05-02T01:05:17.019Z,56.50
2018-05-02T01:07:44.238Z,57.20
2018-05-02T01:10:10.645Z,57.20
2018-05-02T01:12:37.112Z,57.40
2018-05-02T01:15:03.557Z,57.50
2018-05-02T01:17:30.688Z,56.70
2018-05-02T01:19:57.097Z,56.70
2018-05-02T01:22:23.496Z,56.50
2018-05-02T01:24:49.906Z,56.80
2018-05-02T01:27:16.931Z,56.50
2018-05-02T01:29:43.359Z,56.40
2018-05-02T01:32:10.476Z,56.60
2018-05-02T01:34:36.907Z,56.60
2018-05-02T01:37:03.297Z,57.00
2018-05-02T01:39:29.681Z,57.20
2018-05-02T01:41:56.069Z,57.10
2018-05-02T01:44:22.494Z,57.20
2018-05-02T01:46:48.933Z,57.20
2018-05-02T01:49:23.457Z,57.10
2018-05-02T01:51:49.894Z,57.60
2018-05-02T01:54:16.343Z,57.30
2018-05-02T01:56:42.728Z,57.60
2018-05-02T01:59:09.226Z,57.60
2018-05-02T02:01:35.658Z,57.10
2018-05-02T02:04:02.058Z,56.50
2018-05-02T02:06:28.512Z,56.70
2018-05-02T02:08:54.933Z,56.30
2018-05-02T02:11:22.026Z,56.00
2018-05-02T02:13:48.407Z,56.50
2018-05-02T02:16:14.833Z,56.20
2018-05-02T02:18:41.221Z,56.10
2018-05-02T02:21:08.388Z,54.90
2018-05-02T02:23:34.773Z,54.90
2018-05-02T02:26:01.181Z,55.00
2018-05-02T02:28:27.591Z,55.00
2018-05-02T02:30:54.036Z,54.20
2018-05-02T02:33:20.943Z,54.20
2018-05-02T02:35:47.403Z,54.20
2018-05-02T02:38:13.790Z,54.30
2018-05-02T02:40:40.994Z,54.30
2018-05-02T02:43:07.373Z,54.20
2018-05-02T02:45:33.766Z,55.40
2018-05-02T02:48:00.169Z,56.30
2018-05-02T02:50:26.599Z,57.20
2018-05-02T02:52:52.987Z,57.80
2018-05-02T02:55:19.503Z,58.60
2018-05-02T02:57:45.861Z,59.20
2018-05-02T03:00:12.265Z,58.90
2018-05-02T03:02:38.675Z,58.60
2018-05-02T03:05:05.122Z,58.20
2018-05-02T03:07:31.562Z,57.60
2018-05-02T03:09:57.972Z,57.00
2018-05-02T03:12:24.400Z,55.60
2018-05-02T03:14:50.814Z,55.20
2018-05-02T03:17:17.201Z,55.60
2018-05-02T03:19:43.607Z,57.00
2018-05-02T03:22:10.020Z,57.40
2018-05-02T03:24:36.447Z,57.40
2018-05-02T03:27:02.958Z,57.00
2018-05-02T03:29:29.329Z,57.20
2018-05-02T03:31:55.740Z,57.30
2018-05-02T03:34:29.025Z,57.70
2018-05-02T03:36:55.443Z,57.90
2018-05-02T03:39:21.864Z,58.00
2018-05-02T03:41:48.288Z,57.50
2018-05-02T03:44:15.470Z,56.70
2018-05-02T03:46:41.880Z,57.60
2018-05-02T03:49:09.062Z,56.30
2018-05-02T03:51:35.465Z,56.30
2018-05-02T03:54:01.858Z,55.80
2018-05-02T03:56:28.252Z,53.50
2018-05-02T03:58:54.648Z,54.80
2018-05-02T04:01:40.111Z,52.30
2018-05-02T04:07:13.958Z,51.50
2018-05-02T04:09:40.384Z,52.00
2018-05-02T04:12:07.645Z,51.20
2018-05-02T04:14:34.130Z,51.20
2018-05-02T04:17:00.524Z,51.20
2018-05-02T04:19:26.897Z,51.10
2018-05-02T04:21:54.081Z,49.90
2018-05-02T04:24:20.497Z,49.90
2018-05-02T04:26:46.926Z,49.80
2018-05-02T04:29:13.359Z,49.90
2018-05-02T04:31:39.735Z,49.80
2018-05-02T04:34:06.153Z,49.50
2018-05-02T04:36:32.547Z,49.40
2018-05-02T04:38:58.998Z,49.00
2018-05-02T04:41:25.425Z,50.70
2018-05-02T04:43:52.588Z,50.30
2018-05-02T04:46:18.993Z,50.40
2018-05-02T04:48:45.453Z,50.50
2018-05-02T04:51:11.847Z,49.70
2018-05-02T04:53:38.282Z,50.00
2018-05-02T04:56:04.737Z,51.20
2018-05-02T04:58:31.152Z,49.80
2018-05-02T05:00:58.315Z,50.50
2018-05-02T05:03:25.441Z,49.70
2018-05-02T05:05:52.640Z,51.20
2018-05-02T05:08:19.040Z,51.20
2018-05-02T05:10:45.449Z,50.90
2018-05-02T05:13:11.853Z,51.60
2018-05-02T05:15:38.274Z,52.10
2018-05-02T05:18:04.670Z,51.10
2018-05-02T05:20:31.068Z,51.50
2018-05-02T05:22:58.366Z,51.40
2018-05-02T05:25:25.496Z,50.30
2018-05-02T05:27:51.923Z,50.30
2018-05-02T05:30:18.325Z,50.40
2018-05-02T05:32:44.706Z,50.60
2018-05-02T05:35:12.104Z,50.40
2018-05-02T05:37:39.275Z,50.30
2018-05-02T05:40:05.668Z,50.40
2018-05-02T05:42:32.061Z,50.00
2018-05-02T05:44:59.306Z,49.80
2018-05-02T05:47:26.454Z,49.40
2018-05-02T05:49:52.942Z,49.40
2018-05-02T05:52:19.351Z,48.80
2018-05-02T05:54:45.741Z,48.80
2018-05-02T05:57:12.144Z,49.00
2018-05-02T05:59:39.234Z,48.80
2018-05-02T06:02:06.355Z,50.10
2018-05-02T06:04:32.774Z,50.00
2018-05-02T06:06:59.188Z,50.70
2018-05-02T06:09:25.605Z,52.20
2018-05-02T06:11:52.024Z,52.70
2018-05-02T06:14:18.412Z,51.00
2018-05-02T06:16:44.824Z,51.00
2018-05-02T06:19:11.261Z,50.80
2018-05-02T06:21:37.696Z,50.20
2018-05-02T06:24:04.197Z,50.40
2018-05-02T06:26:30.588Z,51.00
2018-05-02T06:28:57.049Z,50.30
2018-05-02T06:31:23.468Z,50.30
2018-05-02T06:33:49.864Z,50.90
2018-05-02T06:36:16.278Z,50.90
2018-05-02T06:38:42.722Z,51.00
2018-05-02T06:41:09.169Z,51.10
2018-05-02T06:43:35.739Z,51.50
2018-05-02T06:46:02.150Z,51.80
2018-05-02T06:48:29.367Z,50.70
2018-05-02T06:50:56.544Z,50.70
2018-05-02T06:53:23.769Z,50.20
2018-05-02T06:55:50.229Z,50.20
2018-05-02T06:58:17.340Z,50.50
2018-05-02T07:00:43.807Z,50.50
2018-05-02T07:03:10.938Z,50.40
2018-05-02T07:05:37.365Z,50.40
2018-05-02T07:08:03.799Z,50.20
2018-05-02T07:10:30.296Z,50.80
2018-05-02T07:12:56.703Z,51.40
2018-05-02T07:15:23.147Z,52.20
2018-05-02T07:17:49.561Z,50.40
2018-05-02T07:20:15.935Z,50.10
2018-05-02T07:22:42.376Z,49.90
2018-05-02T07:25:08.781Z,48.70
2018-05-02T07:27:35.200Z,47.90
2018-05-02T07:30:01.631Z,49.10
2018-05-02T07:32:28.169Z,49.00
2018-05-02T07:34:54.493Z,48.90
2018-05-02T07:37:20.949Z,48.40
2018-05-02T07:39:47.385Z,49.20
2018-05-02T07:42:13.913Z,49.00
2018-05-02T07:44:41.133Z,47.80
2018-05-02T07:47:07.578Z,49.00
2018-05-02T07:49:34.053Z,49.40
2018-05-02T07:52:01.229Z,48.70
2018-05-02T07:54:28.457Z,48.40
2018-05-02T07:57:01.788Z,48.40
2018-05-02T07:59:28.225Z,48.40
2018-05-02T08:01:54.658Z,49.00
2018-05-02T08:04:21.077Z,48.70
2018-05-02T08:06:47.491Z,48.50
2018-05-02T08:09:14.671Z,48.40
2018-05-02T08:11:42.100Z,48.40
2018-05-02T08:14:08.486Z,49.00
2018-05-02T08:16:34.958Z,49.10
2018-05-02T08:19:01.346Z,49.30
2018-05-02T08:21:28.743Z,49.00
2018-05-02T08:23:55.168Z,48.90
2018-05-02T08:26:22.293Z,47.60
2018-05-02T08:28:48.709Z,47.70
2018-05-02T08:31:15.102Z,47.70
2018-05-02T08:33:42.268Z,48.10
2018-05-02T08:36:08.640Z,48.00
2018-05-02T08:38:35.073Z,46.80
2018-05-02T08:41:01.483Z,46.90
2018-05-02T08:43:27.865Z,47.20
2018-05-02T08:45:54.296Z,46.90
2018-05-02T08:48:21.441Z,46.60
2018-05-02T08:50:47.914Z,46.60
2018-05-02T08:53:14.379Z,46.70
2018-05-02T08:55:40.788Z,46.00
2018-05-02T08:58:07.166Z,46.60
2018-05-02T09:00:33.565Z,46.50
2018-05-02T09:02:59.934Z,46.00
2018-05-02T09:05:26.413Z,46.50
2018-05-02T09:07:52.818Z,46.00
2018-05-02T09:10:19.204Z,46.10
2018-05-02T09:12:45.571Z,45.20
2018-05-02T09:15:11.983Z,44.80
2018-05-02T09:17:39.090Z,44.00
2018-05-02T09:20:05.476Z,44.00
2018-05-02T09:22:31.930Z,44.50
2018-05-02T09:24:58.334Z,43.50
2018-05-02T09:27:25.457Z,41.80
2018-05-02T09:29:51.830Z,41.80
2018-05-02T09:32:18.311Z,42.90
2018-05-02T09:34:45.439Z,43.00
2018-05-02T09:37:11.829Z,43.00
2018-05-02T09:39:38.282Z,42.60
2018-05-02T09:42:04.824Z,41.60
2018-05-02T09:44:31.236Z,42.60
2018-05-02T09:46:58.407Z,42.40
2018-05-02T09:49:24.956Z,42.30
2018-05-02T09:51:51.308Z,42.00
2018-05-02T09:54:17.707Z,42.10
2018-05-02T09:56:44.129Z,43.20
2018-05-02T09:59:10.589Z,41.60
2018-05-02T10:01:37.002Z,41.50
2018-05-02T10:04:03.518Z,41.90
2018-05-02T10:06:29.933Z,42.60
2018-05-02T10:08:56.382Z,42.50
2018-05-02T10:11:22.797Z,42.90
2018-05-02T10:13:49.212Z,42.40
2018-05-02T10:16:16.352Z,41.80
2018-05-02T10:18:42.847Z,41.80
2018-05-02T10:21:09.266Z,42.70
2018-05-02T10:23:35.737Z,42.60
2018-05-02T10:26:02.265Z,42.40
2018-05-02T10:28:28.678Z,42.20
2018-05-02T10:30:55.039Z,43.10
2018-05-02T10:33:21.425Z,43.60
2018-05-02T10:35:47.825Z,43.30
2018-05-02T10:38:14.311Z,43.40
2018-05-02T10:40:40.726Z,44.10
2018-05-02T10:43:07.124Z,44.30
2018-05-02T10:45:33.485Z,43.60
2018-05-02T10:48:00.614Z,43.60
2018-05-02T10:50:27.051Z,43.50
2018-05-02T10:52:54.157Z,44.70
2018-05-02T10:55:20.572Z,44.60
2018-05-02T10:57:46.942Z,45.00
2018-05-02T11:00:13.371Z,44.50
2018-05-02T11:02:39.737Z,43.00
2018-05-02T11:05:06.122Z,43.20
2018-05-02T11:07:33.292Z,43.20
2018-05-02T11:10:00.383Z,42.80
2018-05-02T11:12:26.834Z,42.60
2018-05-02T11:14:53.179Z,42.50
2018-05-02T11:17:20.336Z,42.30
2018-05-02T11:19:46.796Z,42.30
2018-05-02T11:22:13.194Z,42.80
2018-05-02T11:24:39.589Z,42.40
2018-05-02T11:27:05.982Z,41.90
2018-05-02T11:29:32.390Z,42.80
2018-05-02T11:31:58.797Z,43.10
2018-05-02T11:34:25.935Z,42.80
2018-05-02T11:36:52.375Z,42.80
2018-05-02T11:39:19.574Z,40.90
2018-05-02T11:41:46.026Z,40.90
2018-05-02T11:44:12.426Z,41.70
2018-05-02T11:46:39.600Z,40.50
2018-05-02T11:49:06.001Z,41.40
2018-05-02T11:51:32.400Z,40.00
2018-05-02T11:53:58.780Z,40.00
2018-05-02T11:56:25.205Z,40.00
2018-05-02T11:58:51.645Z,40.00
2018-05-02T12:01:18.019Z,40.00
2018-05-02T12:03:44.423Z,40.10
2018-05-02T12:06:10.825Z,39.00
2018-05-02T12:08:38.224Z,40.40
2018-05-02T12:11:04.627Z,38.30
2018-05-02T12:13:31.089Z,39.40
2018-05-02T12:15:57.503Z,38.90
2018-05-02T12:18:23.890Z,38.50
2018-05-02T12:20:50.292Z,38.30
2018-05-02T12:23:16.692Z,38.30
2018-05-02T12:25:43.104Z,38.00
2018-05-02T12:28:09.496Z,38.60
2018-05-02T12:30:36.592Z,38.30
2018-05-02T12:33:03.024Z,38.20
2018-05-02T12:35:29.478Z,38.80
2018-05-02T12:37:55.888Z,37.60
2018-05-02T12:40:22.312Z,36.70
2018-05-02T12:42:48.746Z,37.50
2018-05-02T12:45:15.105Z,36.90
2018-05-02T12:47:41.500Z,37.20
2018-05-02T12:50:07.861Z,37.00
2018-05-02T12:52:34.291Z,38.20
2018-05-02T12:55:00.700Z,38.20
2018-05-02T12:57:27.125Z,38.30
2018-05-02T12:59:53.534Z,37.20
2018-05-02T13:02:20.753Z,37.60
2018-05-02T13:04:47.155Z,37.60
2018-05-02T13:07:13.582Z,37.60
2018-05-02T13:09:39.973Z,37.80
2018-05-02T13:12:06.468Z,37.70
2018-05-02T13:14:32.988Z,37.60
2018-05-02T13:17:00.091Z,37.50
2018-05-02T13:19:26.487Z,37.50
2018-05-02T13:21:52.938Z,37.50
2018-05-02T13:24:20.088Z,38.10
2018-05-02T13:26:47.324Z,38.30
2018-05-02T13:29:14.482Z,37.90
2018-05-02T13:31:41.652Z,38.00
2018-05-02T13:34:08.052Z,38.00
2018-05-02T13:36:34.494Z,38.00
2018-05-02T13:39:00.928Z,38.30
2018-05-02T13:41:28.051Z,38.90
2018-05-02T13:43:54.584Z,38.20
2018-05-02T13:46:20.951Z,38.40
2018-05-02T13:48:47.423Z,38.60
2018-05-02T13:51:13.868Z,38.90
2018-05-02T13:53:40.319Z,39.20
2018-05-02T13:56:06.719Z,39.90
2018-05-02T13:58:33.105Z,38.80
2018-05-02T14:01:00.240Z,38.80
2018-05-02T14:03:27.439Z,39.10
2018-05-02T14:05:53.876Z,39.10
2018-05-02T14:08:20.379Z,39.40
2018-05-02T14:10:46.789Z,39.40
2018-05-02T14:13:13.163Z,38.60
2018-05-02T14:15:39.626Z,38.80
2018-05-02T14:18:06.078Z,38.70
2018-05-02T14:20:32.456Z,37.90
2018-05-02T14:22:58.842Z,37.80
2018-05-02T14:25:25.270Z,38.60
2018-05-02T14:27:51.653Z,38.10
2018-05-02T14:30:18.052Z,38.00
2018-05-02T14:32:44.483Z,38.40
2018-05-02T14:35:10.952Z,38.30
2018-05-02T14:37:38.858Z,38.30
2018-05-02T14:40:05.315Z,38.10
2018-05-02T14:42:32.492Z,37.70
2018-05-02T14:44:59.038Z,37.70
2018-05-02T14:47:25.405Z,37.70
2018-05-02T14:49:51.839Z,37.80
2018-05-02T14:52:18.360Z,37.80
2018-05-02T14:54:45.655Z,37.90
2018-05-02T14:57:12.116Z,37.90
2018-05-02T14:59:38.559Z,37.30
2018-05-02T15:02:05.080Z,37.70
2018-05-02T15:04:31.415Z,38.00
2018-05-02T15:06:57.853Z,37.90
2018-05-02T15:09:24.245Z,37.80
2018-05-02T15:11:50.692Z,37.90
2018-05-02T15:14:17.145Z,37.60
2018-05-02T15:16:43.615Z,37.50
2018-05-02T15:19:10.758Z,38.00
2018-05-02T15:21:37.928Z,38.20
2018-05-02T15:24:05.126Z,38.10
2018-05-02T15:26:31.568Z,38.20
2018-05-02T15:28:57.970Z,38.10
2018-05-02T15:31:24.361Z,38.10
2018-05-02T15:33:51.555Z,38.80
2018-05-02T15:36:18.052Z,38.80
2018-05-02T15:38:45.178Z,38.70
2018-05-02T15:41:11.608Z,38.70
2018-05-02T15:43:38.029Z,38.80
2018-05-02T15:46:04.470Z,39.10
2018-05-02T15:48:30.899Z,39.10
2018-05-02T15:50:57.348Z,39.60
2018-05-02T15:53:23.768Z,39.90
2018-05-02T15:55:50.936Z,40.00
2018-05-02T15:58:18.236Z,40.00
2018-05-02T16:00:45.377Z,40.00
2018-05-02T16:03:11.775Z,40.00
2018-05-02T16:05:38.248Z,39.90
2018-05-02T16:08:04.870Z,40.30
2018-05-02T16:10:31.285Z,40.00
2018-05-02T16:12:57.710Z,40.00
2018-05-02T16:15:24.143Z,40.40
2018-05-02T16:17:51.338Z,41.10
2018-05-02T16:20:17.750Z,41.10
2018-05-02T16:22:44.188Z,40.60
2018-05-02T16:25:10.608Z,40.30
2018-05-02T16:27:37.111Z,40.90
2018-05-02T16:30:03.502Z,41.70
2018-05-02T16:32:29.923Z,41.60
2018-05-02T16:34:56.334Z,41.60
2018-05-02T16:37:22.740Z,41.60
2018-05-02T16:39:49.227Z,41.60
2018-05-02T16:42:15.684Z,42.00
2018-05-02T16:44:42.097Z,41.70
2018-05-02T16:47:09.120Z,41.60
2018-05-02T16:49:35.496Z,41.50
2018-05-02T16:52:01.940Z,42.50
2018-05-02T16:54:28.372Z,42.20
2018-05-02T16:56:54.804Z,42.10
2018-05-02T16:59:22.834Z,41.90
2018-05-02T17:01:49.388Z,41.80
2018-05-02T17:04:15.868Z,41.70
2018-05-02T17:06:42.213Z,41.70
2018-05-02T17:09:08.700Z,42.30
2018-05-02T17:11:36.679Z,42.00
2018-05-02T17:14:03.129Z,41.90
2018-05-02T17:16:29.540Z,42.00
2018-05-02T17:18:56.717Z,42.40
2018-05-02T17:21:23.129Z,42.30
2018-05-02T17:23:49.652Z,42.50
2018-05-02T17:26:16.173Z,42.90
2018-05-02T17:28:42.621Z,42.80
2018-05-02T17:31:09.772Z,43.00
2018-05-02T17:33:36.166Z,43.00
2018-05-02T17:36:02.606Z,42.80
2018-05-02T17:38:29.753Z,43.90
2018-05-02T17:40:56.260Z,43.30
2018-05-02T17:43:22.632Z,43.40
2018-05-02T17:45:49.831Z,43.40
2018-05-02T17:48:16.245Z,43.40
2018-05-02T17:50:42.723Z,43.60
2018-05-02T17:53:09.175Z,43.70
2018-05-02T17:55:36.322Z,44.30
2018-05-02T17:58:04.525Z,43.80
2018-05-02T18:00:30.938Z,43.70
2018-05-02T18:02:57.346Z,43.60
2018-05-02T18:05:24.524Z,43.50
2018-05-02T18:07:52.472Z,43.50
2018-05-02T18:10:19.894Z,43.70
2018-05-02T18:12:49.636Z,43.70
2018-05-02T18:15:16.782Z,44.00
2018-05-02T18:17:43.193Z,44.00
2018-05-02T18:20:09.619Z,44.30
2018-05-02T18:22:36.075Z,44.40
2018-05-02T18:25:03.308Z,44.80
2018-05-02T18:27:29.754Z,44.80
2018-05-02T18:29:57.005Z,45.30
2018-05-02T18:32:24.259Z,45.00
2018-05-02T18:34:50.824Z,45.70
2018-05-02T18:37:17.230Z,45.50
2018-05-02T18:39:43.743Z,45.60
2018-05-02T18:42:10.200Z,46.20
2018-05-02T18:44:36.634Z,46.40
2018-05-02T18:47:03.854Z,46.80
2018-05-02T18:49:30.300Z,46.80
2018-05-02T18:51:56.800Z,46.90
2018-05-02T18:54:23.208Z,47.10
2018-05-02T18:56:49.711Z,47.40
2018-05-02T18:59:16.878Z,47.70
2018-05-02T19:01:43.275Z,47.70
2018-05-02T19:04:11.353Z,47.70
2018-05-02T19:06:37.842Z,47.60
2018-05-02T19:09:04.317Z,47.70
2018-05-02T19:11:30.830Z,47.70
2018-05-02T19:14:01.161Z,48.20
2018-05-02T19:16:27.703Z,47.70
2018-05-02T19:19:01.970Z,48.70
2018-05-02T19:21:28.477Z,48.70
2018-05-02T19:23:55.012Z,49.00
2018-05-02T19:26:27.673Z,49.40
2018-05-02T19:28:54.130Z,49.30
2018-05-02T19:31:26.521Z,49.30
2018-05-02T19:33:54.069Z,49.30
2018-05-02T19:36:20.505Z,49.20
2018-05-02T19:38:47.017Z,49.20
2018-05-02T19:41:19.730Z,49.20
2018-05-02T19:43:52.299Z,49.20
2018-05-02T19:46:18.904Z,49.40
2018-05-02T19:48:45.562Z,49.60
2018-05-02T19:51:18.248Z,49.40
2018-05-02T19:53:44.724Z,49.20
2018-05-02T19:56:12.017Z,49.80
2018-05-02T19:58:38.533Z,49.80
2018-05-02T20:01:11.801Z,49.70
2018-05-02T20:03:39.018Z,49.80
2018-05-02T20:06:05.516Z,49.90
2018-05-02T20:08:38.949Z,49.20
2018-05-02T20:11:11.533Z,49.20
2018-05-02T20:13:43.892Z,49.30
2018-05-02T20:16:10.430Z,49.30
2018-05-02T20:18:36.858Z,49.20
2018-05-02T20:21:03.274Z,49.30
2018-05-02T20:23:29.789Z,49.30
2018-05-02T20:25:56.321Z,49.60
2018-05-02T20:28:22.772Z,49.30
2018-05-02T20:30:49.269Z,49.20
2018-05-02T20:33:15.781Z,49.10
2018-05-02T20:35:42.245Z,49.20
2018-05-02T20:38:08.639Z,49.10
2018-05-02T20:40:35.102Z,49.50
2018-05-02T20:43:02.268Z,49.20
2018-05-02T20:45:28.716Z,49.20
2018-05-02T20:47:55.155Z,49.20
2018-05-02T20:50:21.607Z,49.10
2018-05-02T20:52:48.036Z,49.10
2018-05-02T20:55:14.504Z,49.00
2018-05-02T20:57:43.456Z,49.20
2018-05-02T21:00:10.887Z,49.00
2018-05-02T21:02:37.369Z,49.60
2018-05-02T21:05:03.857Z,49.10
2018-05-02T21:07:30.295Z,49.20
2018-05-02T21:09:56.725Z,49.20
2018-05-02T21:12:23.157Z,49.00
2018-05-02T21:14:49.601Z,49.00
2018-05-02T21:17:16.025Z,49.00
2018-05-02T21:19:42.503Z,49.10
2018-05-02T21:22:09.651Z,49.50
2018-05-02T21:24:36.051Z,48.80
2018-05-02T21:27:02.591Z,48.70
2018-05-02T21:29:29.003Z,48.70
2018-05-02T21:31:56.310Z,48.60
2018-05-02T21:34:22.725Z,48.70
2018-05-02T21:36:49.171Z,48.60
2018-05-02T21:39:16.287Z,48.60
2018-05-02T21:41:42.752Z,48.60
2018-05-02T21:44:09.916Z,48.80
2018-05-02T21:46:36.319Z,48.80
2018-05-02T21:49:02.775Z,48.30
2018-05-02T21:51:29.957Z,48.70
2018-05-02T21:53:56.377Z,48.70
2018-05-02T21:56:22.769Z,47.90
2018-05-02T21:58:49.272Z,47.60
2018-05-02T22:01:15.711Z,46.90
2018-05-02T22:03:42.108Z,47.00
2018-05-02T22:06:08.543Z,47.50
2018-05-02T22:08:34.974Z,47.10
2018-05-02T22:11:01.368Z,47.20
2018-05-02T22:13:28.551Z,47.70
2018-05-02T22:15:54.955Z,47.70
2018-05-02T22:18:22.124Z,47.10
2018-05-02T22:20:49.073Z,47.10
2018-05-02T22:23:15.482Z,47.10
2018-05-02T22:25:42.684Z,47.00
2018-05-02T22:28:09.920Z,47.30
2018-05-02T22:30:36.340Z,47.20
2018-05-02T22:33:02.769Z,47.70
2018-05-02T22:35:29.130Z,48.10
2018-05-02T22:37:55.537Z,48.00
2018-05-02T22:40:21.961Z,48.70
2018-05-02T22:42:48.345Z,48.00
2018-05-02T22:45:14.725Z,48.60
2018-05-02T22:47:41.141Z,48.60
2018-05-02T22:50:07.535Z,48.60
2018-05-02T22:52:33.946Z,48.50
2018-05-02T22:55:00.305Z,48.50
2018-05-02T22:57:27.416Z,48.40
2018-05-02T22:59:53.857Z,48.40
2018-05-02T23:02:20.289Z,48.40
2018-05-02T23:04:46.813Z,48.40
2018-05-02T23:07:13.253Z,48.60
2018-05-02T23:09:39.620Z,48.60
2018-05-02T23:12:06.788Z,49.30
2018-05-02T23:14:33.176Z,49.20
2018-05-02T23:16:59.543Z,49.40
2018-05-02T23:19:25.963Z,49.60
2018-05-02T23:21:53.095Z,50.10
2018-05-02T23:24:19.474Z,50.10
2018-05-02T23:26:46.588Z,50.80
2018-05-02T23:29:13.731Z,51.00
2018-05-02T23:31:40.885Z,51.60
2018-05-02T23:34:07.292Z,51.10
2018-05-02T23:36:33.660Z,51.20
2018-05-02T23:39:00.764Z,51.10
2018-05-02T23:41:27.124Z,51.00
2018-05-02T23:43:54.277Z,51.10
2018-05-02T23:46:21.423Z,51.00
2018-05-02T23:48:49.373Z,50.90
2018-05-02T23:51:15.751Z,50.90
2018-05-02T23:53:42.217Z,50.80
2018-05-02T23:56:08.573Z,50.80
2018-05-02T23:58:35.711Z,51.50
